Time;durP1;ratioP1;P1;durP2;ratioP2;P2;SDS_P1;SDS_P2;PMS_P1;PMS_P2;Temp;Humidity;BMP_temperature;BMP_pressure;BME280_temperature;BME280_humidity;BME280_pressure;Samples;Min_cycle;Max_cycle;Signal;HPM_P1;HPM_P2
2023/07/01 00:01:24;;;;;;;15.93;7.60;;;;;;;-144.47;100.00;52713.09;5044282;28;20110;-68
2023/07/01 00:03:49;;;;;;;13.63;8.02;;;;;;;-144.47;100.00;52709.13;5023285;28;20376;-69
2023/07/01 00:06:15;;;;;;;13.38;7.60;;;;;;;-144.47;100.00;52707.13;5029673;28;20166;-67
2023/07/01 00:08:41;;;;;;;11.65;7.95;;;;;;;-144.47;100.00;52695.22;5011440;28;20037;-69
2023/07/01 00:11:07;;;;;;;11.95;6.93;;;;;;;-144.47;100.00;52705.16;5029781;28;20049;-69
2023/07/01 00:13:33;;;;;;;15.60;6.68;;;;;;;-144.47;100.00;52717.06;5029044;28;20471;-68
2023/07/01 00:15:58;;;;;;;11.82;6.47;;;;;;;-144.47;100.00;52711.09;5029658;28;20079;-68
2023/07/01 00:18:24;;;;;;;10.23;6.50;;;;;;;-144.47;100.00;52673.38;5040645;28;20025;-70
2023/07/01 00:20:50;;;;;;;10.68;6.68;;;;;;;-144.47;100.00;52699.19;5063526;22;20076;-72
2023/07/01 00:23:15;;;;;;;12.35;6.93;;;;;;;-144.47;100.00;52713.09;5050568;28;20509;-69
2023/07/01 00:25:41;;;;;;;12.82;6.65;;;;;;;-144.47;100.00;52707.13;5051254;28;20323;-72
2023/07/01 00:28:06;;;;;;;10.85;6.88;;;;;;;-144.47;100.00;52715.06;5050994;28;20056;-72
2023/07/01 00:30:31;;;;;;;15.15;6.32;;;;;;;-144.47;100.00;52689.25;5050034;28;20078;-72
2023/07/01 00:32:57;;;;;;;10.50;6.80;;;;;;;-144.47;100.00;52709.13;5010791;28;20029;-72
2023/07/01 00:35:22;;;;;;;15.55;6.80;;;;;;;-144.47;100.00;52687.28;5031795;28;20447;-70
2023/07/01 00:37:47;;;;;;;14.90;6.20;;;;;;;-144.47;100.00;52709.13;5037229;28;20721;-70
2023/07/01 00:40:13;;;;;;;14.18;6.55;;;;;;;-144.47;100.00;52687.28;5050113;28;20031;-70
2023/07/01 00:42:39;;;;;;;13.82;6.80;;;;;;;-144.47;100.00;52689.25;5050181;28;20025;-73
2023/07/01 00:45:05;;;;;;;16.70;6.72;;;;;;;-144.47;100.00;52721.03;5049550;28;20467;-71
2023/07/01 00:47:30;;;;;;;15.95;6.80;;;;;;;-144.47;100.00;52675.34;5030406;28;20031;-71
2023/07/01 00:49:57;;;;;;;10.95;6.00;;;;;;;-144.47;100.00;52675.34;5046307;28;20025;-72
2023/07/01 00:52:22;;;;;;;10.70;6.70;;;;;;;-144.47;100.00;52703.16;5023467;28;20029;-71
2023/07/01 00:54:48;;;;;;;16.13;6.53;;;;;;;-144.47;100.00;52681.31;5049158;28;20097;-71
2023/07/01 00:57:13;;;;;;;17.00;7.28;;;;;;;-144.47;100.00;52697.19;5036696;28;20040;-70
2023/07/01 00:59:39;;;;;;;15.75;6.70;;;;;;;-144.47;100.00;52687.28;5049307;28;20045;-69
2023/07/01 01:02:10;;;;;;;22.27;7.22;;;;;;;-144.47;100.00;52699.19;5023027;28;20021;-72
2023/07/01 01:04:45;;;;;;;14.82;6.47;;;;;;;-144.47;100.00;52723.03;5020008;28;20475;-69
2023/07/01 01:07:31;;;;;;;22.02;7.75;;;;;;;-144.47;100.00;52697.19;5040762;28;20037;-72
2023/07/01 01:10:03;;;;;;;34.75;8.48;;;;;;;-144.47;100.00;52701.19;5047686;28;20368;-71
2023/07/01 01:12:30;;;;;;;20.75;7.25;;;;;;;-144.47;100.00;52705.16;5038345;28;20026;-71
2023/07/01 01:14:57;;;;;;;14.93;7.05;;;;;;;-144.47;100.00;52719.06;5043471;28;20159;-71
2023/07/01 01:17:24;;;;;;;15.77;6.38;;;;;;;-144.47;100.00;52705.16;5035497;28;20026;-66
2023/07/01 01:19:59;;;;;;;15.43;6.45;;;;;;;-144.47;100.00;52715.06;5023772;28;20033;-69
2023/07/01 01:22:38;;;;;;;13.00;6.45;;;;;;;-144.47;100.00;52687.28;5042453;28;20024;-70
2023/07/01 01:25:08;;;;;;;18.10;6.50;;;;;;;-144.47;100.00;52715.06;5038505;28;20029;-71
2023/07/01 01:27:39;;;;;;;15.27;6.75;;;;;;;-144.47;100.00;52701.19;5036196;28;20028;-71
2023/07/01 01:30:09;;;;;;;18.90;5.82;;;;;;;-144.47;100.00;52707.13;5038522;28;20025;-72
2023/07/01 01:32:37;;;;;;;31.95;7.53;;;;;;;-144.47;100.00;52699.19;5033573;28;20484;-68
2023/07/01 01:35:03;;;;;;;21.83;6.45;;;;;;;-144.47;100.00;52697.19;5022361;28;20285;-72
2023/07/01 01:37:51;;;;;;;23.33;6.38;;;;;;;-144.47;100.00;52701.19;5031778;28;20108;-70
2023/07/01 01:40:34;;;;;;;20.63;7.20;;;;;;;-144.47;100.00;52685.28;5028661;28;20056;-71
2023/07/01 01:43:25;;;;;;;17.98;6.70;;;;;;;-144.47;100.00;52705.16;5038675;28;20056;-71
2023/07/01 01:45:51;;;;;;;11.98;7.07;;;;;;;-144.47;100.00;52715.06;5029891;28;20091;-70
2023/07/01 01:48:17;;;;;;;27.73;7.30;;;;;;;-144.47;100.00;52677.34;5029253;28;20100;-69
2023/07/01 01:50:49;;;;;;;22.88;6.47;;;;;;;-144.47;100.00;52725.00;5042256;28;20105;-69
2023/07/01 01:53:14;;;;;;;18.77;6.60;;;;;;;-144.47;100.00;52709.13;5047051;28;20035;-71
2023/07/01 01:55:41;;;;;;;17.60;6.45;;;;;;;-144.47;100.00;52725.00;5041562;28;20030;-70
2023/07/01 01:58:06;;;;;;;26.55;6.07;;;;;;;-144.47;100.00;52717.06;5029087;28;20460;-74
2023/07/01 02:00:33;;;;;;;14.05;6.68;;;;;;;-144.47;100.00;52701.19;5036112;28;20544;-70
2023/07/01 02:02:59;;;;;;;18.55;6.97;;;;;;;-144.47;100.00;52725.00;5034641;28;20029;-71
2023/07/01 02:05:25;;;;;;;20.35;7.03;;;;;;;-144.47;100.00;52730.97;5028673;28;20057;-71
2023/07/01 02:07:50;;;;;;;21.70;6.93;;;;;;;-144.47;100.00;52744.88;5040620;28;20053;-70
2023/07/01 02:10:16;;;;;;;16.17;6.72;;;;;;;-144.47;100.00;52689.25;5048929;28;20109;-72
2023/07/01 02:12:41;;;;;;;16.65;6.50;;;;;;;-144.47;100.00;52715.06;5048683;28;20027;-73
2023/07/01 02:15:07;;;;;;;18.38;6.72;;;;;;;-144.47;100.00;52730.97;5030427;28;20028;-72
2023/07/01 02:17:33;;;;;;;25.83;7.18;;;;;;;-144.47;100.00;52701.19;5039061;28;20642;-70
2023/07/01 02:19:58;;;;;;;22.40;7.75;;;;;;;-144.47;100.00;52723.03;4998975;28;20025;-70
2023/07/01 02:22:23;;;;;;;11.98;7.07;;;;;;;-144.47;100.00;52744.88;5028650;28;20018;-69
2023/07/01 02:24:49;;;;;;;23.83;7.45;;;;;;;-144.47;100.00;52719.06;5032136;28;20091;-70
2023/07/01 02:27:14;;;;;;;19.02;7.53;;;;;;;-144.47;100.00;52703.16;5046515;28;20046;-69
2023/07/01 02:29:40;;;;;;;37.78;6.80;;;;;;;-144.47;100.00;52730.97;5052532;28;20029;-74
2023/07/01 02:32:06;;;;;;;18.48;7.10;;;;;;;-144.47;100.00;52709.13;5032280;28;20348;-71
2023/07/01 02:34:32;;;;;;;15.88;7.43;;;;;;;-144.47;100.00;52721.03;5035693;28;20028;-71
2023/07/01 02:36:57;;;;;;;12.82;7.03;;;;;;;-144.47;100.00;52715.06;5032456;28;20029;-71
2023/07/01 02:39:23;;;;;;;23.55;7.55;;;;;;;-144.47;100.00;52689.25;5045111;28;20025;-69
2023/07/01 02:41:48;;;;;;;17.77;6.93;;;;;;;-144.47;100.00;52715.06;5045350;28;20028;-74
2023/07/01 02:44:13;;;;;;;24.10;6.97;;;;;;;-144.47;100.00;52728.97;5038123;28;20075;-70
2023/07/01 02:46:39;;;;;;;19.83;8.63;;;;;;;-144.47;100.00;52685.28;5039656;28;20033;-70
2023/07/01 02:49:04;;;;;;;22.20;7.50;;;;;;;-144.47;100.00;52705.16;5045391;28;20026;-77
2023/07/01 02:51:30;;;;;;;21.48;7.00;;;;;;;-144.47;100.00;52705.16;5044510;28;20029;-73
2023/07/01 02:53:55;;;;;;;24.42;8.10;;;;;;;-144.47;100.00;52705.16;5038294;28;20162;-72
2023/07/01 02:56:21;;;;;;;12.50;7.05;;;;;;;-144.47;100.00;52728.97;5039484;28;20149;-76
2023/07/01 02:58:46;;;;;;;18.67;7.10;;;;;;;-144.47;100.00;52725.00;5045122;28;20040;-68
2023/07/01 03:01:14;;;;;;;14.48;6.95;;;;;;;-144.47;100.00;52748.84;5044044;28;20017;-70
2023/07/01 03:03:40;;;;;;;16.05;6.50;;;;;;;-144.47;100.00;52727.00;5038191;28;20029;-72
2023/07/01 03:06:06;;;;;;;17.30;6.95;;;;;;;-144.47;100.00;52717.06;5039134;28;20029;-72
2023/07/01 03:08:32;;;;;;;14.50;7.13;;;;;;;-144.47;100.00;52750.81;5044933;28;20026;-73
2023/07/01 03:10:57;;;;;;;14.82;6.60;;;;;;;-144.47;100.00;52725.00;5037251;28;20395;-71
2023/07/01 03:13:22;;;;;;;17.20;7.70;;;;;;;-144.47;100.00;52711.09;5045224;28;20333;-70
2023/07/01 03:15:49;;;;;;;13.60;6.97;;;;;;;-144.47;100.00;52715.06;5043958;28;20017;-70
2023/07/01 03:18:14;;;;;;;15.38;7.40;;;;;;;-144.47;100.00;52723.03;5032494;28;20499;-71
2023/07/01 03:20:40;;;;;;;14.23;6.95;;;;;;;-144.47;100.00;52756.78;5033964;28;20052;-72
2023/07/01 03:23:06;;;;;;;16.02;7.32;;;;;;;-144.47;100.00;52715.06;5025006;28;20502;-70
2023/07/01 03:25:31;;;;;;;15.98;7.88;;;;;;;-144.47;100.00;52721.03;5050941;28;20588;-69
2023/07/01 03:27:57;;;;;;;17.38;7.78;;;;;;;-144.47;100.00;52725.00;5027362;28;20179;-70
2023/07/01 03:30:28;;;;;;;17.88;7.75;;;;;;;-144.47;100.00;52725.00;5043992;28;20048;-74
2023/07/01 03:32:54;;;;;;;15.70;7.45;;;;;;;-144.47;100.00;52723.03;5043325;28;20140;-71
2023/07/01 03:35:20;;;;;;;18.88;7.43;;;;;;;-144.47;100.00;52709.13;5027585;28;20029;-71
2023/07/01 03:37:46;;;;;;;14.35;7.18;;;;;;;-144.47;100.00;52740.91;5033126;28;20028;-71
2023/07/01 03:40:11;;;;;;;21.33;7.13;;;;;;;-144.47;100.00;52740.91;5045057;28;20023;-72
2023/07/01 03:42:40;;;;;;;17.50;7.43;;;;;;;-144.47;100.00;52721.03;5024830;28;20025;-74
2023/07/01 03:45:07;;;;;;;;;;;;;;;-144.47;100.00;52734.94;5045449;28;20025;-74
2023/07/01 03:47:34;;;;;;;15.32;6.82;;;;;;;-144.47;100.00;52697.19;5025934;28;19912;-71
2023/07/01 03:49:59;;;;;;;12.50;7.30;;;;;;;-144.47;100.00;52748.84;5044070;28;20029;-73
2023/07/01 03:52:24;;;;;;;13.60;6.85;;;;;;;-144.47;100.00;52697.19;5051073;28;20437;-71
2023/07/01 03:54:50;;;;;;;12.60;6.72;;;;;;;-144.47;100.00;52717.06;5050705;28;20506;-71
2023/07/01 03:57:16;;;;;;;14.95;7.00;;;;;;;-144.47;100.00;52734.94;5036098;28;20029;-72
2023/07/01 03:59:41;;;;;;;14.07;6.95;;;;;;;-144.47;100.00;52709.13;5031638;28;20387;-72
2023/07/01 04:02:06;;;;;;;12.88;7.40;;;;;;;-144.47;100.00;52738.91;5051443;28;20028;-69
2023/07/01 04:04:32;;;;;;;15.95;6.85;;;;;;;-144.47;100.00;52728.97;5050812;28;20048;-69
2023/07/01 04:06:57;;;;;;;24.65;7.45;;;;;;;-144.47;100.00;52707.13;5051357;28;20477;-72
2023/07/01 04:09:23;;;;;;;15.65;7.45;;;;;;;-144.47;100.00;52725.00;5050836;28;20437;-73
2023/07/01 04:11:48;;;;;;;18.90;7.00;;;;;;;-144.47;100.00;52713.09;5050719;28;20104;-73
2023/07/01 04:14:15;;;;;;;11.88;6.25;;;;;;;-144.47;100.00;52699.19;5049928;28;20106;-72
2023/07/01 04:16:44;;;;;;;12.60;6.43;;;;;;;-144.47;100.00;52711.09;5025696;28;20071;-70
2023/07/01 04:19:10;;;;;;;14.77;5.88;;;;;;;-144.47;100.00;52721.03;5023165;28;20028;-70
2023/07/01 04:21:39;;;;;;;13.82;6.60;;;;;;;-144.47;100.00;52711.09;5040656;28;20025;-71
2023/07/01 04:24:06;;;;;;;16.50;5.57;;;;;;;-144.47;100.00;52736.94;5037666;28;20021;-74
2023/07/01 04:26:31;;;;;;;14.68;6.30;;;;;;;-144.47;100.00;52740.91;5021561;28;20035;-74
2023/07/01 04:28:57;;;;;;;12.55;6.20;;;;;;;-144.47;100.00;52727.00;5033732;28;20025;-73
2023/07/01 04:31:23;;;;;;;19.40;6.05;;;;;;;-144.47;100.00;52713.09;5028923;28;20087;-69
2023/07/01 04:33:49;;;;;;;10.25;6.20;;;;;;;-144.47;100.00;52721.03;5031663;28;20574;-70
2023/07/01 04:36:14;;;;;;;13.05;5.82;;;;;;;-144.47;100.00;52727.00;5036464;28;20546;-71
2023/07/01 04:38:40;;;;;;;19.77;6.78;;;;;;;-144.47;100.00;52701.19;5036483;28;20036;-71
2023/07/01 04:41:05;;;;;;;22.33;6.43;;;;;;;-144.47;100.00;52721.03;5038121;28;20375;-75
2023/07/01 04:43:31;;;;;;;16.98;5.93;;;;;;;-144.47;100.00;52721.03;5037304;28;20372;-72
2023/07/01 04:45:57;;;;;;;16.25;6.63;;;;;;;-144.47;100.00;52742.88;5020468;28;20446;-68
2023/07/01 04:48:22;;;;;;;17.05;6.25;;;;;;;-144.47;100.00;52728.97;5038119;28;20025;-67
2023/07/01 04:50:48;;;;;;;19.02;6.20;;;;;;;-144.47;100.00;52740.91;5021173;28;20414;-69
2023/07/01 04:53:13;;;;;;;14.73;6.43;;;;;;;-144.47;100.00;52732.94;5036774;28;20024;-72
2023/07/01 04:55:38;;;;;;;24.90;6.93;;;;;;;-144.47;100.00;52699.19;5040294;28;20069;-71
2023/07/01 04:58:04;;;;;;;17.65;6.22;;;;;;;-144.47;100.00;52701.19;5030934;28;20048;-71
2023/07/01 05:00:29;;;;;;;16.33;5.78;;;;;;;-144.47;100.00;52713.09;5039246;28;20505;-71
2023/07/01 05:02:54;;;;;;;12.15;5.80;;;;;;;-144.47;100.00;52685.28;5037061;28;20506;-74
2023/07/01 05:05:20;;;;;;;18.30;6.38;;;;;;;-144.47;100.00;52709.13;5011591;28;20025;-71
2023/07/01 05:07:45;;;;;;;13.93;5.90;;;;;;;-144.47;100.00;52732.94;5041610;28;20016;-71
2023/07/01 05:10:14;;;;;;;12.98;5.25;;;;;;;-144.47;100.00;52715.06;5035253;28;20029;-72
2023/07/01 05:12:39;;;;;;;21.35;7.20;;;;;;;-144.47;100.00;52721.03;5034286;28;20029;-77
2023/07/01 05:15:05;;;;;;;12.32;5.25;;;;;;;-144.47;100.00;52711.09;5029064;28;20095;-72
2023/07/01 05:17:30;;;;;;;16.40;5.68;;;;;;;-144.47;100.00;52719.06;5025935;28;20385;-69
2023/07/01 05:19:56;;;;;;;16.13;5.40;;;;;;;-144.47;100.00;52715.06;5029172;28;20542;-71
2023/07/01 05:22:21;;;;;;;22.55;5.25;;;;;;;-144.47;100.00;52734.94;5028698;28;20364;-68
2023/07/01 05:24:46;;;;;;;12.18;4.90;;;;;;;-144.47;99.96;52709.13;5025794;28;20112;-71
2023/07/01 05:27:12;;;;;;;15.13;5.43;;;;;;;-144.47;99.36;52748.84;5032601;28;20059;-71
2023/07/01 05:29:37;;;;;;;11.00;4.75;;;;;;;-144.47;99.61;52703.16;5042000;28;20030;-71
2023/07/01 05:32:03;;;;;;;10.38;4.95;;;;;;;-144.47;99.57;52732.94;5031946;28;20656;-73
2023/07/01 05:34:29;;;;;;;15.43;5.90;;;;;;;-144.47;99.69;52752.81;5036537;28;20025;-72
2023/07/01 05:36:55;;;;;;;24.27;5.13;;;;;;;-144.47;98.68;52725.00;5029441;28;20121;-72
2023/07/01 05:39:21;;;;;;;12.52;5.28;;;;;;;-144.47;98.21;52705.16;5025780;28;20048;-70
2023/07/01 05:41:47;;;;;;;15.90;5.03;;;;;;;-144.47;97.14;52695.22;5037801;28;20483;-73
2023/07/01 05:44:12;;;;;;;15.82;5.18;;;;;;;-144.47;97.01;52705.16;5043046;28;20021;-71
2023/07/01 05:46:40;;;;;;;23.88;4.80;;;;;;;-144.47;96.57;52711.09;5036161;28;20021;-70
2023/07/01 05:49:05;;;;;;;11.95;4.32;;;;;;;-144.47;93.98;52709.13;5037055;28;20025;-69
2023/07/01 05:51:31;;;;;;;11.70;3.97;;;;;;;-144.47;94.34;52707.13;5036185;28;20022;-71
2023/07/01 05:53:56;;;;;;;8.60;3.97;;;;;;;-144.47;93.93;52727.00;5025713;28;20175;-71
2023/07/01 05:56:21;;;;;;;11.55;4.20;;;;;;;-144.47;93.70;52697.19;5044368;28;20056;-71
2023/07/01 05:58:47;;;;;;;9.85;3.78;;;;;;;-144.47;92.04;52717.06;5047127;28;20025;-74
2023/07/01 06:01:12;;;;;;;12.75;3.65;;;;;;;-144.47;90.52;52709.13;5045767;28;20162;-72
2023/07/01 06:03:37;;;;;;;10.80;3.20;;;;;;;-144.47;89.98;52738.91;5046802;28;20462;-73
2023/07/01 06:06:05;;;;;;;7.82;3.05;;;;;;;-144.47;87.98;52707.13;5035378;28;20105;-70
2023/07/01 06:08:30;;;;;;;5.78;3.38;;;;;;;-144.47;88.44;52693.22;5039447;28;20048;-72
2023/07/01 06:10:56;;;;;;;16.67;2.88;;;;;;;-144.47;85.95;52691.25;5045863;28;20029;-70
2023/07/01 06:13:21;;;;;;;8.65;2.90;;;;;;;-144.47;84.98;52697.19;5034457;28;20033;-70
2023/07/01 06:15:47;;;;;;;6.25;2.92;;;;;;;-144.47;82.89;52721.03;5041166;28;20025;-72
2023/07/01 06:18:12;;;;;;;7.20;2.42;;;;;;;-144.47;82.26;52709.13;5031662;28;20093;-70
2023/07/01 06:20:38;;;;;;;7.13;2.40;;;;;;;-144.47;80.77;52721.03;5051883;22;20382;-70
2023/07/01 06:23:03;;;;;;;11.60;2.78;;;;;;;-144.47;81.18;52721.03;5050850;28;20032;-67
2023/07/01 06:25:28;;;;;;;10.68;2.60;;;;;;;-144.47;80.61;52681.31;5050711;28;20078;-70
2023/07/01 06:27:54;;;;;;;4.63;2.58;;;;;;;-144.47;81.81;52705.16;5051204;28;20112;-68
2023/07/01 06:30:19;;;;;;;8.13;2.42;;;;;;;-144.47;82.42;52699.19;5036643;28;20044;-66
2023/07/01 06:32:44;;;;;;;9.18;2.35;;;;;;;-144.47;80.57;52717.06;5049877;28;20051;-70
2023/07/01 06:35:10;;;;;;;5.10;2.38;;;;;;;-144.47;77.03;52707.13;5050122;28;20029;-64
2023/07/01 06:37:35;;;;;;;10.40;2.58;;;;;;;-144.47;77.63;52705.16;5050360;28;20142;-67
2023/07/01 06:40:00;;;;;;;9.10;2.05;;;;;;;-144.47;75.04;52709.13;5050245;28;20116;-69
2023/07/01 06:42:26;;;;;;;7.03;2.10;;;;;;;-144.47;73.46;52711.09;5050826;28;20024;-68
2023/07/01 06:44:51;;;;;;;9.52;2.00;;;;;;;-144.47;72.30;52699.19;5050631;28;20203;-69
2023/07/01 06:47:17;;;;;;;4.95;1.77;;;;;;;-144.47;70.34;52703.16;5050697;28;20036;-68
2023/07/01 06:49:42;;;;;;;4.85;1.80;;;;;;;-144.47;68.92;52713.09;5050398;28;20113;-66
2023/07/01 06:52:07;;;;;;;18.25;2.67;;;;;;;-144.47;69.65;52687.28;5050814;28;20039;-70
2023/07/01 06:54:33;;;;;;;11.73;2.78;;;;;;;-144.47;70.64;52705.16;5031729;28;20037;-69
2023/07/01 06:56:58;;;;;;;9.70;2.03;;;;;;;-144.47;70.53;52699.19;5050570;28;20104;-66
2023/07/01 06:59:24;;;;;;;6.70;1.75;;;;;;;-144.47;68.24;52727.00;5050527;28;20097;-71
2023/07/01 07:01:49;;;;;;;4.72;1.67;;;;;;;-144.47;67.19;52707.13;5031408;28;20482;-68
2023/07/01 07:04:14;;;;;;;9.25;1.60;;;;;;;-144.47;69.39;52721.03;5049417;28;20381;-69
2023/07/01 07:06:40;;;;;;;4.45;2.25;;;;;;;-144.47;68.34;52691.25;5031791;28;20045;-70
2023/07/01 07:09:05;;;;;;;7.10;1.73;;;;;;;-144.47;69.01;52693.22;5049783;28;20033;-69
2023/07/01 07:11:31;;;;;;;8.05;1.75;;;;;;;-144.47;68.89;52685.28;5049297;28;20036;-69
2023/07/01 07:13:56;;;;;;;5.70;1.95;;;;;;;-144.47;68.92;52681.31;5049453;28;20029;-71
2023/07/01 07:16:21;;;;;;;5.28;2.72;;;;;;;-144.47;69.53;52709.13;5036845;28;20029;-70
2023/07/01 07:18:47;;;;;;;7.03;1.75;;;;;;;-144.47;70.72;52705.16;5047112;28;20031;-67
2023/07/01 07:21:13;;;;;;;4.85;2.15;;;;;;;-144.47;71.06;52695.22;5031464;28;20037;-68
2023/07/01 07:23:38;;;;;;;9.70;1.90;;;;;;;-144.47;64.45;52707.13;5049282;28;20417;-65
2023/07/01 07:26:03;;;;;;;12.10;3.10;;;;;;;-144.47;65.49;52695.22;5047696;28;20086;-68
2023/07/01 07:28:29;;;;;;;5.40;1.90;;;;;;;-144.47;64.36;52721.03;5049249;28;20447;-68
2023/07/01 07:30:54;;;;;;;8.38;2.00;;;;;;;-144.47;64.47;52683.31;5030592;28;20524;-68
2023/07/01 07:33:19;;;;;;;8.15;1.80;;;;;;;-144.47;65.16;52697.19;5048722;28;20035;-67
2023/07/01 07:35:45;;;;;;;4.57;2.00;;;;;;;-144.47;67.01;52673.38;5048483;28;20344;-69
2023/07/01 07:38:10;;;;;;;5.53;2.10;;;;;;;-144.47;67.80;52715.06;5048843;28;20110;-68
2023/07/01 07:40:36;;;;;;;4.75;2.33;;;;;;;-144.47;67.73;52717.06;5048918;28;20100;-69
2023/07/01 07:43:11;;;;;;;4.00;2.00;;;;;;;-144.47;62.81;52701.19;5047792;28;20033;-69
2023/07/01 07:45:37;;;;;;;8.40;2.47;;;;;;;-144.47;63.83;52707.13;5049018;28;20066;-68
2023/07/01 07:48:02;;;;;;;8.05;2.08;;;;;;;-144.47;65.46;52695.22;5048858;28;20037;-69
2023/07/01 07:50:28;;;;;;;6.28;2.30;;;;;;;-144.47;64.33;52697.19;5048275;28;20040;-66
2023/07/01 07:52:53;;;;;;;7.38;2.35;;;;;;;-144.47;64.94;52715.06;5048828;28;20089;-68
2023/07/01 07:55:19;;;;;;;4.43;2.25;;;;;;;-144.47;61.42;52693.22;5048106;28;20029;-69
2023/07/01 07:57:44;;;;;;;5.78;2.50;;;;;;;-144.47;63.57;52715.06;5047818;28;20098;-69
2023/07/01 08:00:10;;;;;;;5.10;2.08;;;;;;;-144.47;64.45;52730.97;5049288;28;20033;-69
2023/07/01 08:02:42;;;;;;;15.15;2.65;;;;;;;-144.47;63.72;52728.97;5046862;28;20028;-67
2023/07/01 08:05:07;;;;;;;7.28;2.25;;;;;;;-144.47;63.01;52689.25;5048499;28;20247;-67
2023/07/01 08:07:33;;;;;;;6.45;2.97;;;;;;;-144.47;61.78;52715.06;5048589;28;20671;-69
2023/07/01 08:09:58;;;;;;;4.10;2.22;;;;;;;-144.47;60.02;52695.22;5048487;28;20367;-65
2023/07/01 08:12:24;;;;;;;10.75;2.30;;;;;;;-144.47;58.90;52730.97;5048752;28;20029;-69
2023/07/01 08:14:49;;;;;;;8.32;2.35;;;;;;;-144.47;58.41;52693.22;5047647;28;20035;-69
2023/07/01 08:17:14;;;;;;;6.35;2.03;;;;;;;-144.47;56.85;52695.22;5046318;28;20062;-69
2023/07/01 08:19:40;;;;;;;5.47;2.30;;;;;;;-144.47;55.41;52723.03;5048161;28;20082;-68
2023/07/01 08:22:05;;;;;;;7.25;2.40;;;;;;;-144.47;55.90;52713.09;5048791;28;20071;-69
2023/07/01 08:24:30;;;;;;;5.57;2.00;;;;;;;-144.47;56.36;52715.06;5048722;28;20017;-66
2023/07/01 08:26:56;;;;;;;4.90;1.92;;;;;;;-144.47;53.37;52701.19;5048696;28;20082;-69
2023/07/01 08:29:21;;;;;;;6.90;1.70;;;;;;;-144.47;53.49;52689.25;5048843;28;20033;-68
2023/07/01 08:31:46;;;;;;;3.92;1.65;;;;;;;-144.47;52.63;52705.16;5046217;28;20498;-67
2023/07/01 08:34:12;;;;;;;3.85;1.58;;;;;;;-144.47;52.59;52689.25;5048301;28;20029;-70
2023/07/01 08:36:37;;;;;;;6.72;2.25;;;;;;;-144.47;52.82;52707.13;5048599;28;20124;-65
2023/07/01 08:39:03;;;;;;;6.18;2.45;;;;;;;-144.47;52.24;52717.06;5048520;28;20024;-68
2023/07/01 08:41:32;;;;;;;3.83;1.50;;;;;;;-144.47;50.94;52709.13;5048384;28;20431;-71
2023/07/01 08:43:59;;;;;;;5.35;1.88;;;;;;;-144.47;50.94;52717.06;5034556;28;20366;-68
2023/07/01 08:46:24;;;;;;;4.70;2.13;;;;;;;-144.47;48.79;52717.06;5048486;28;20013;-68
2023/07/01 08:48:50;;;;;;;5.60;1.83;;;;;;;-144.47;48.98;52719.06;5048777;28;20021;-64
2023/07/01 08:51:28;;;;;;;3.15;1.52;;;;;;;-144.47;47.67;52701.19;5048513;28;20025;-70
2023/07/01 08:53:53;;;;;;;5.18;1.65;;;;;;;-144.47;48.19;52719.06;5036056;28;20027;-70
2023/07/01 08:56:20;;;;;;;9.38;1.95;;;;;;;-144.47;48.72;52713.09;5048182;28;20025;-70
2023/07/01 08:58:49;;;;;;;5.32;2.00;;;;;;;-144.47;49.76;52715.06;5047847;28;20048;-70
2023/07/01 09:01:16;;;;;;;6.78;1.75;;;;;;;-144.47;49.71;52707.13;5047577;28;20052;-69
2023/07/01 09:03:42;;;;;;;5.45;1.90;;;;;;;-144.47;49.56;52738.91;5045663;28;20386;-69
2023/07/01 09:06:07;;;;;;;4.10;1.50;;;;;;;-144.47;49.24;52703.16;5048021;28;20568;-70
2023/07/01 09:08:37;;;;;;;8.65;2.20;;;;;;;-144.47;49.39;52721.03;5048023;28;20029;-69
2023/07/01 09:11:03;;;;;;;5.07;1.92;;;;;;;-144.47;48.19;52744.88;5048081;28;20103;-69
2023/07/01 09:13:29;;;;;;;4.38;1.75;;;;;;;-144.47;49.10;52699.19;5048390;28;20486;-65
2023/07/01 09:15:55;;;;;;;8.90;1.85;;;;;;;-144.47;49.00;52713.09;5047108;28;20351;-70
2023/07/01 09:18:24;;;;;;;6.43;1.67;;;;;;;-144.47;49.42;52725.00;5035395;28;20025;-68
2023/07/01 09:20:51;;;;;;;5.25;1.80;;;;;;;-144.47;48.61;52727.00;5047000;28;20124;-66
2023/07/01 09:23:35;;;;;;;7.25;2.28;;;;;;;-144.47;48.73;52738.91;5047741;28;20358;-70
2023/07/01 09:26:07;;;;;;;7.93;1.80;;;;;;;-144.47;48.32;52736.94;5031615;28;20048;-69
2023/07/01 09:28:34;;;;;;;8.57;2.05;;;;;;;-144.47;47.94;52732.94;5046808;28;20192;-67
2023/07/01 09:31:03;;;;;;;4.60;1.80;;;;;;;-144.47;47.57;52713.09;5045543;28;20033;-69
2023/07/01 09:33:30;;;;;;;5.03;1.90;;;;;;;-144.47;47.12;52713.09;5046744;28;20074;-69
2023/07/01 09:36:01;;;;;;;3.85;1.70;;;;;;;-144.47;47.13;52727.00;5047539;28;20044;-70
2023/07/01 09:38:34;;;;;;;4.85;2.00;;;;;;;-144.47;48.10;52738.91;5047644;28;20385;-67
2023/07/01 09:41:18;;;;;;;12.70;2.03;;;;;;;-144.47;48.28;52728.97;5047931;28;20454;-70
2023/07/01 09:43:43;;;;;;;6.63;1.98;;;;;;;-144.47;48.42;52715.06;5034849;28;20051;-67
2023/07/01 09:46:09;;;;;;;10.35;2.10;;;;;;;-144.47;47.99;52736.94;5047008;28;20034;-68
2023/07/01 09:48:36;;;;;;;6.95;2.08;;;;;;;-144.47;47.58;52728.97;5047816;28;20021;-69
2023/07/01 09:51:05;;;;;;;7.70;1.98;;;;;;;-144.47;47.18;52748.84;5047124;28;20021;-71
2023/07/01 09:53:34;;;;;;;4.85;1.90;;;;;;;-144.47;46.53;52740.91;5047709;28;20047;-66
2023/07/01 09:56:04;;;;;;;3.97;1.85;;;;;;;-144.47;46.57;52738.91;5047720;28;20090;-70
2023/07/01 09:58:31;;;;;;;4.05;1.75;;;;;;;-144.47;46.36;52742.88;5046157;28;20078;-66
2023/07/01 10:00:57;;;;;;;5.65;2.10;;;;;;;-144.47;45.99;52756.78;5045676;28;20036;-71
2023/07/01 10:03:27;;;;;;;4.38;1.90;;;;;;;-144.47;45.96;52766.72;5045745;28;20099;-70
2023/07/01 10:05:53;;;;;;;3.65;1.80;;;;;;;-144.47;46.77;52727.00;5042292;28;20363;-69
2023/07/01 10:08:19;;;;;;;3.95;1.60;;;;;;;-144.47;47.19;52736.94;5046421;28;20482;-65
2023/07/01 10:10:53;;;;;;;10.20;2.40;;;;;;;-144.47;46.74;52760.75;5046169;28;20059;-71
2023/07/01 10:13:20;;;;;;;9.18;2.00;;;;;;;-144.47;46.27;52752.81;5046145;28;20463;-69
2023/07/01 10:15:46;;;;;;;3.80;1.70;;;;;;;-144.47;45.77;52764.72;5046880;28;20168;-68
2023/07/01 10:18:22;;;;;;;3.38;1.88;;;;;;;-144.47;44.76;52770.69;5028243;28;20041;-65
2023/07/01 10:20:52;;;;;;;7.85;1.90;;;;;;;-144.47;44.33;52772.69;5046869;28;20505;-68
2023/07/01 10:23:19;;;;;;;5.50;1.88;;;;;;;-144.47;44.93;52744.88;5046984;28;20035;-69
2023/07/01 10:25:44;;;;;;;6.28;1.88;;;;;;;-144.47;44.07;52766.72;5046651;28;20029;-67
2023/07/01 10:28:11;;;;;;;4.97;1.52;;;;;;;-144.47;44.38;52744.88;5048055;28;20040;-68
2023/07/01 10:30:45;;;;;;;5.68;2.05;;;;;;;-144.47;44.04;52780.63;5046349;28;20017;-69
2023/07/01 10:33:39;;;;;;;14.70;4.72;;;;;;;-144.47;43.79;52750.81;5045386;28;20112;-70
2023/07/01 10:36:06;;;;;;;5.10;2.10;;;;;;;-144.47;44.91;52734.94;5043641;28;20120;-68
2023/07/01 10:38:32;;;;;;;9.50;2.00;;;;;;;-144.47;44.08;52768.69;5047255;28;20021;-68
2023/07/01 10:40:58;;;;;;;11.25;2.03;;;;;;;-144.47;43.44;52736.94;5046377;28;20029;-69
2023/07/01 10:43:34;;;;;;;3.28;1.77;;;;;;;-144.47;42.53;52764.72;5047634;28;20064;-69
2023/07/01 10:46:15;;;;;;;5.32;2.00;;;;;;;-144.47;41.65;52764.72;5050782;28;20021;-69
2023/07/01 10:49:04;;;;;;;7.63;2.10;;;;;;;-144.47;41.43;52760.75;5050993;28;20104;-67
2023/07/01 10:51:33;;;;;;;9.07;2.00;;;;;;;-144.47;41.60;52764.72;5040161;28;20053;-71
2023/07/01 10:53:59;;;;;;;14.38;2.10;;;;;;;-144.47;40.99;52780.63;5050910;28;20029;-69
2023/07/01 10:56:25;;;;;;;6.45;2.83;;;;;;;-144.47;41.30;52730.97;5050482;28;20021;-65
2023/07/01 10:59:20;;;;;;;4.57;2.20;;;;;;;-144.47;40.81;52748.84;5041905;28;20091;-69
2023/07/01 11:01:48;;;;;;;5.15;2.10;;;;;;;-144.47;40.53;52756.78;5038886;28;20642;-69
2023/07/01 11:04:14;;;;;;;5.07;2.13;;;;;;;-144.47;39.42;52776.66;5050291;28;20029;-68
2023/07/01 11:06:45;;;;;;;5.97;2.30;;;;;;;-144.47;39.85;52766.72;5050888;28;20060;-66
2023/07/01 11:09:11;;;;;;;4.07;2.10;;;;;;;-144.47;40.49;52760.75;5049314;28;20032;-69